createdAt,value
2018-03-22T00:01:28.755Z,12.47
2018-03-22T00:03:54.954Z,13.13
2018-03-22T00:06:20.966Z,12.60
2018-03-22T00:08:47.000Z,12.60
2018-03-22T00:11:13.014Z,13.00
2018-03-22T00:13:39.035Z,13.27
2018-03-22T00:16:05.046Z,13.20
2018-03-22T00:18:31.662Z,13.37
2018-03-22T00:20:57.671Z,14.90
2018-03-22T00:23:24.667Z,14.03
2018-03-22T00:25:51.059Z,13.90
2018-03-22T00:28:17.074Z,13.70
2018-03-22T00:30:43.119Z,15.33
2018-03-22T00:33:09.142Z,14.17
2018-03-22T00:35:35.163Z,14.67
2018-03-22T00:38:01.273Z,14.83
2018-03-22T00:40:28.016Z,14.50
2018-03-22T00:42:54.071Z,14.93
2018-03-22T00:45:20.112Z,15.07
2018-03-22T00:47:46.131Z,15.53
2018-03-22T00:50:12.526Z,15.37
2018-03-22T00:52:38.539Z,15.17
2018-03-22T00:55:05.499Z,13.80
2018-03-22T00:57:31.534Z,16.57
2018-03-22T00:59:57.544Z,16.20
2018-03-22T01:02:23.619Z,16.10
2018-03-22T01:04:49.836Z,16.00
2018-03-22T01:07:16.350Z,14.53
2018-03-22T01:09:42.371Z,15.90
2018-03-22T01:12:08.386Z,15.30
2018-03-22T01:14:34.444Z,17.63
2018-03-22T01:17:00.473Z,15.47
2018-03-22T01:19:26.476Z,16.70
2018-03-22T01:21:53.314Z,15.80
2018-03-22T01:24:19.356Z,15.67
2018-03-22T01:26:45.411Z,16.27
2018-03-22T01:29:11.475Z,18.30
2018-03-22T01:31:37.475Z,17.43
2018-03-22T01:34:04.890Z,17.40
2018-03-22T01:36:30.965Z,16.43
2018-03-22T01:38:57.032Z,17.40
2018-03-22T01:41:23.038Z,17.30
2018-03-22T01:43:49.070Z,17.20
2018-03-22T01:46:15.431Z,17.03
2018-03-22T01:48:41.823Z,17.77
2018-03-22T01:51:07.878Z,17.63
2018-03-22T01:53:33.897Z,16.43
2018-03-22T01:55:59.925Z,17.57
2018-03-22T01:58:25.923Z,16.83
2018-03-22T02:00:51.975Z,17.30
2018-03-22T02:03:18.074Z,18.97
2018-03-22T02:05:45.066Z,15.23
2018-03-22T02:08:11.066Z,16.70
2018-03-22T02:10:37.087Z,17.13
2018-03-22T02:13:03.147Z,17.50
2018-03-22T02:15:29.178Z,17.70
2018-03-22T02:17:55.934Z,18.40
2018-03-22T02:20:21.948Z,17.73
2018-03-22T02:22:47.978Z,17.73
2018-03-22T02:25:14.303Z,18.37
2018-03-22T02:27:41.803Z,18.20
2018-03-22T02:30:08.158Z,17.23
2018-03-22T02:32:34.167Z,17.67
2018-03-22T02:35:00.165Z,18.10
2018-03-22T02:37:26.272Z,15.90
2018-03-22T02:39:52.365Z,18.67
2018-03-22T02:42:18.855Z,17.20
2018-03-22T02:44:44.972Z,19.37
2018-03-22T02:47:11.039Z,18.87
2018-03-22T02:49:37.396Z,17.87
2018-03-22T02:52:03.455Z,18.13
2018-03-22T02:54:29.466Z,17.97
2018-03-22T02:56:55.491Z,18.43
2018-03-22T02:59:21.536Z,17.67
2018-03-22T03:01:47.572Z,17.63
2018-03-22T03:04:13.602Z,16.80
2018-03-22T03:06:39.628Z,16.40
2018-03-22T03:09:05.869Z,16.70
2018-03-22T03:11:31.895Z,17.60
2018-03-22T03:13:57.938Z,17.80
2018-03-22T03:16:23.975Z,16.07
2018-03-22T03:18:50.033Z,16.10
2018-03-22T03:21:16.078Z,16.33
2018-03-22T03:23:42.109Z,17.03
2018-03-22T03:26:08.142Z,16.47
2018-03-22T03:28:34.215Z,16.57
2018-03-22T03:31:00.231Z,16.23
2018-03-22T03:33:26.251Z,17.13
2018-03-22T03:35:52.359Z,17.53
2018-03-22T03:38:18.439Z,16.87
2018-03-22T03:40:44.979Z,17.77
2018-03-22T03:43:10.987Z,16.07
2018-03-22T03:45:37.051Z,16.03
2018-03-22T03:48:03.239Z,16.10
2018-03-22T03:50:29.264Z,15.83
2018-03-22T03:52:55.279Z,15.83
2018-03-22T03:55:21.310Z,17.10
2018-03-22T03:57:47.340Z,15.60
2018-03-22T04:00:13.446Z,14.67
2018-03-22T04:02:39.502Z,15.57
2018-03-22T04:05:06.299Z,15.07
2018-03-22T04:07:32.360Z,16.53
2018-03-22T04:09:58.368Z,16.20
2018-03-22T04:12:24.466Z,15.70
2018-03-22T04:14:50.500Z,14.87
2018-03-22T04:17:16.559Z,16.37
2018-03-22T04:19:42.614Z,15.27
2018-03-22T04:22:08.618Z,15.80
2018-03-22T04:24:34.656Z,15.30
2018-03-22T04:27:00.814Z,16.30
2018-03-22T04:29:26.868Z,14.43
2018-03-22T04:31:52.910Z,13.67
2018-03-22T04:34:18.985Z,14.23
2018-03-22T04:36:44.998Z,15.03
2018-03-22T04:39:11.062Z,15.47
2018-03-22T04:41:37.066Z,13.40
2018-03-22T04:44:03.137Z,15.83
2018-03-22T04:46:29.255Z,14.37
2018-03-22T04:48:55.250Z,17.07
2018-03-22T04:51:21.270Z,16.33
2018-03-22T04:53:47.302Z,17.50
2018-03-22T04:56:13.371Z,16.87
2018-03-22T04:58:39.370Z,16.67
2018-03-22T05:01:05.400Z,15.57
2018-03-22T05:03:31.618Z,17.87
2018-03-22T05:05:57.646Z,15.33
2018-03-22T05:08:23.698Z,18.60
2018-03-22T05:10:49.710Z,17.77
2018-03-22T05:13:15.747Z,20.07
2018-03-22T05:15:41.778Z,17.93
2018-03-22T05:18:07.791Z,19.37
2018-03-22T05:20:33.831Z,19.97
2018-03-22T05:22:59.846Z,22.27
2018-03-22T05:25:25.895Z,19.50
2018-03-22T05:27:51.966Z,18.47
2018-03-22T05:30:18.012Z,17.67
2018-03-22T05:32:45.235Z,21.50
2018-03-22T05:35:11.274Z,20.17
2018-03-22T05:37:37.280Z,18.47
2018-03-22T05:40:03.358Z,16.50
2018-03-22T05:42:29.417Z,18.17
2018-03-22T05:44:55.426Z,19.73
2018-03-22T05:47:21.467Z,20.33
2018-03-22T05:49:47.778Z,20.00
2018-03-22T05:52:13.859Z,20.70
2018-03-22T05:54:39.879Z,19.53
2018-03-22T05:57:06.471Z,18.73
2018-03-22T05:59:33.520Z,21.73
2018-03-22T06:01:59.570Z,21.77
2018-03-22T06:04:25.608Z,26.00
2018-03-22T06:06:51.915Z,24.33
2018-03-22T06:09:17.921Z,23.87
2018-03-22T06:11:43.964Z,24.27
2018-03-22T06:14:09.990Z,24.47
2018-03-22T06:16:36.010Z,26.93
2018-03-22T06:19:02.099Z,24.13
2018-03-22T06:21:28.105Z,24.00
2018-03-22T06:23:54.190Z,26.33
2018-03-22T06:26:20.194Z,27.67
2018-03-22T06:28:46.239Z,26.90
2018-03-22T06:31:12.843Z,26.33
2018-03-22T06:33:39.074Z,23.47
2018-03-22T06:42:47.356Z,20.70
2018-03-22T06:45:13.394Z,24.30
2018-03-22T06:47:39.440Z,27.83
2018-03-22T06:50:05.811Z,25.23
2018-03-22T06:52:31.822Z,26.47
2018-03-22T06:54:57.834Z,26.30
2018-03-22T06:57:23.878Z,22.97
2018-03-22T06:59:49.932Z,23.13
2018-03-22T07:02:15.949Z,23.43
2018-03-22T07:04:42.354Z,24.47
2018-03-22T07:07:08.386Z,25.67
2018-03-22T07:09:34.419Z,25.20
2018-03-22T07:12:00.503Z,23.43
2018-03-22T07:14:27.283Z,27.87
2018-03-22T07:16:53.315Z,25.00
2018-03-22T07:19:19.338Z,25.00
2018-03-22T07:21:45.342Z,23.97
2018-03-22T07:24:11.427Z,22.80
2018-03-22T07:26:38.206Z,24.47
2018-03-22T07:29:04.366Z,31.53
2018-03-22T07:31:30.376Z,22.57
2018-03-22T07:33:56.559Z,19.73
2018-03-22T07:36:22.646Z,27.17
2018-03-22T07:38:48.687Z,24.97
2018-03-22T07:41:14.719Z,25.13
2018-03-22T07:43:41.687Z,26.77
2018-03-22T07:46:08.596Z,27.87
2018-03-22T07:48:34.643Z,33.13
2018-03-22T07:51:01.119Z,34.33
2018-03-22T07:53:27.153Z,30.33
2018-03-22T07:55:53.180Z,27.20
2018-03-22T07:58:19.218Z,28.43
2018-03-22T08:00:45.348Z,28.53
2018-03-22T08:03:15.583Z,27.83
2018-03-22T08:05:42.391Z,27.03
2018-03-22T08:08:08.403Z,30.07
2018-03-22T08:10:34.439Z,27.17
2018-03-22T08:13:00.491Z,27.30
2018-03-22T08:15:27.265Z,28.27
2018-03-22T08:17:53.324Z,24.87
2018-03-22T08:20:19.345Z,28.60
2018-03-22T08:22:45.379Z,29.43
2018-03-22T08:25:11.414Z,27.13
2018-03-22T08:27:37.799Z,28.53
2018-03-22T08:30:03.852Z,26.93
2018-03-22T08:32:29.850Z,27.17
2018-03-22T08:34:56.067Z,29.37
2018-03-22T08:37:22.362Z,27.07
2018-03-22T08:39:48.438Z,25.37
2018-03-22T08:42:14.695Z,23.90
2018-03-22T08:44:40.726Z,26.17
2018-03-22T08:47:06.746Z,22.90
2018-03-22T08:49:32.836Z,25.57
2018-03-22T08:51:58.918Z,25.77
2018-03-22T08:54:24.983Z,22.00
2018-03-22T08:56:51.026Z,24.77
2018-03-22T08:59:17.076Z,22.33
2018-03-22T09:01:43.123Z,24.27
2018-03-22T09:04:09.197Z,25.63
2018-03-22T09:06:35.194Z,24.43
2018-03-22T09:09:01.262Z,24.93
2018-03-22T09:11:27.876Z,24.77
2018-03-22T09:13:53.894Z,21.23
2018-03-22T09:16:19.930Z,23.13
2018-03-22T09:18:45.939Z,21.33
2018-03-22T09:21:12.378Z,24.63
2018-03-22T09:23:38.399Z,22.53
2018-03-22T09:26:04.471Z,20.90
2018-03-22T09:28:30.790Z,25.73
2018-03-22T09:30:56.795Z,23.53
2018-03-22T09:33:22.844Z,25.33
2018-03-22T09:35:48.862Z,21.50
2018-03-22T09:38:14.937Z,24.30
2018-03-22T09:40:40.970Z,24.37
2018-03-22T09:43:07.041Z,21.60
2018-03-22T09:45:33.438Z,24.53
2018-03-22T09:47:59.754Z,20.50
2018-03-22T09:50:25.754Z,19.57
2018-03-22T09:52:51.812Z,17.13
2018-03-22T09:55:17.875Z,20.40
2018-03-22T09:57:43.914Z,16.70
2018-03-22T10:00:25.482Z,15.90
2018-03-22T10:02:51.561Z,18.00
2018-03-22T10:05:17.520Z,19.40
2018-03-22T10:07:43.583Z,14.97
2018-03-22T10:10:09.646Z,15.53
2018-03-22T10:12:35.692Z,12.20
2018-03-22T10:15:01.726Z,11.37
2018-03-22T10:17:27.883Z,11.83
2018-03-22T10:19:53.907Z,13.07
2018-03-22T10:22:19.941Z,11.53
2018-03-22T10:24:46.259Z,11.27
2018-03-22T10:27:13.134Z,12.13
2018-03-22T10:29:39.722Z,11.30
2018-03-22T10:32:05.786Z,10.20
2018-03-22T10:34:31.802Z,10.23
2018-03-22T10:36:57.826Z,8.40
2018-03-22T10:39:23.838Z,11.13
2018-03-22T10:41:50.655Z,7.50
2018-03-22T10:44:16.687Z,10.60
2018-03-22T10:46:42.842Z,9.77
2018-03-22T10:49:08.973Z,10.57
2018-03-22T10:51:34.986Z,7.23
2018-03-22T10:54:01.103Z,9.03
2018-03-22T10:56:27.135Z,8.60
2018-03-22T10:58:53.182Z,8.53
2018-03-22T11:01:25.227Z,8.43
2018-03-22T11:03:53.015Z,10.27
2018-03-22T11:06:19.095Z,10.17
2018-03-22T11:08:45.916Z,9.73
2018-03-22T11:11:11.978Z,11.23
2018-03-22T11:13:38.791Z,11.60
2018-03-22T11:16:04.910Z,10.43
2018-03-22T11:18:31.007Z,12.10
2018-03-22T11:20:57.006Z,12.80
2018-03-22T11:23:23.051Z,14.33
2018-03-22T11:25:49.074Z,16.10
2018-03-22T11:28:15.498Z,14.43
2018-03-22T11:30:41.587Z,13.43
2018-03-22T11:33:07.620Z,16.43
2018-03-22T11:35:34.413Z,17.77
2018-03-22T11:38:00.430Z,17.37
2018-03-22T11:40:26.631Z,16.57
2018-03-22T11:42:52.807Z,19.23
2018-03-22T11:45:18.822Z,21.10
2018-03-22T11:47:44.999Z,18.93
2018-03-22T11:50:11.554Z,20.97
2018-03-22T11:52:37.665Z,21.73
2018-03-22T11:55:03.724Z,19.60
2018-03-22T11:57:29.758Z,22.67
2018-03-22T11:59:55.819Z,22.73
2018-03-22T12:02:21.939Z,22.50
2018-03-22T12:04:48.095Z,23.37
2018-03-22T12:07:14.237Z,29.00
2018-03-22T12:09:40.259Z,24.00
2018-03-22T12:12:06.312Z,23.57
2018-03-22T12:14:32.351Z,21.50
2018-03-22T12:16:58.363Z,29.13
2018-03-22T12:19:24.886Z,29.47
2018-03-22T12:21:50.896Z,31.20
2018-03-22T12:24:16.963Z,28.90
2018-03-22T12:26:42.979Z,29.50
2018-03-22T12:29:09.017Z,32.40
2018-03-22T12:31:35.895Z,35.30
2018-03-22T12:34:01.912Z,28.63
2018-03-22T12:36:27.975Z,30.50
2018-03-22T12:38:53.994Z,33.70
2018-03-22T12:41:20.019Z,29.63
2018-03-22T12:43:46.166Z,32.63
2018-03-22T12:46:12.168Z,34.00
2018-03-22T12:48:38.251Z,29.47
2018-03-22T12:51:05.046Z,32.17
2018-03-22T12:53:31.068Z,31.73
2018-03-22T12:55:57.119Z,31.40
2018-03-22T12:58:23.146Z,31.53
2018-03-22T13:00:50.127Z,27.80
2018-03-22T13:03:16.199Z,30.17
2018-03-22T13:05:42.234Z,32.30
2018-03-22T13:08:08.310Z,25.43
2018-03-22T13:10:34.351Z,31.03
2018-03-22T13:13:00.374Z,26.50
2018-03-22T13:15:26.543Z,25.50
2018-03-22T13:17:53.316Z,24.73
2018-03-22T13:20:19.379Z,22.37
2018-03-22T13:22:45.779Z,19.33
2018-03-22T13:25:11.791Z,24.53
2018-03-22T13:27:37.855Z,19.30
2018-03-22T13:30:03.883Z,18.03
2018-03-22T13:32:29.923Z,14.77
2018-03-22T13:34:55.939Z,18.53
2018-03-22T13:37:22.005Z,21.57
2018-03-22T13:39:48.107Z,18.00
2018-03-22T13:42:14.143Z,18.83
2018-03-22T13:44:40.195Z,16.40
2018-03-22T13:47:06.223Z,17.20
2018-03-22T13:52:26.464Z,18.60
2018-03-22T13:54:52.805Z,15.97
2018-03-22T13:57:18.814Z,15.40
2018-03-22T13:59:45.034Z,16.20
2018-03-22T14:02:11.137Z,17.77
2018-03-22T14:04:37.199Z,15.60
2018-03-22T14:07:03.212Z,14.47
2018-03-22T14:09:29.235Z,18.47
2018-03-22T14:11:55.254Z,14.47
2018-03-22T14:14:21.590Z,15.03
2018-03-22T14:16:47.586Z,15.50
2018-03-22T14:19:13.622Z,14.13
2018-03-22T14:21:39.666Z,17.07
2018-03-22T14:24:06.287Z,13.43
2018-03-22T14:26:32.411Z,13.90
2018-03-22T14:28:58.424Z,15.63
2018-03-22T14:31:24.578Z,15.10
2018-03-22T14:33:50.616Z,13.73
2018-03-22T14:36:16.691Z,15.50
2018-03-22T14:38:42.861Z,12.60
2018-03-22T14:41:08.833Z,15.00
2018-03-22T14:43:34.978Z,15.73
2018-03-22T14:46:00.995Z,14.40
2018-03-22T14:48:27.054Z,14.93
2018-03-22T14:50:53.123Z,11.70
2018-03-22T14:53:19.164Z,11.20
2018-03-22T14:55:45.175Z,10.57
2018-03-22T14:58:11.203Z,8.60
2018-03-22T15:00:37.241Z,8.30
2018-03-22T15:03:03.340Z,9.03
2018-03-22T15:05:30.206Z,9.27
2018-03-22T15:07:56.312Z,8.60
2018-03-22T15:10:22.433Z,8.23
2018-03-22T15:12:48.575Z,7.73
2018-03-22T15:15:14.614Z,8.40
2018-03-22T15:17:40.655Z,7.93
2018-03-22T15:20:06.728Z,7.77
2018-03-22T15:22:33.499Z,7.70
2018-03-22T15:24:59.559Z,7.90
2018-03-22T15:27:25.624Z,7.27
2018-03-22T15:29:52.370Z,7.37
2018-03-22T15:32:18.415Z,6.80
2018-03-22T15:34:44.543Z,7.30
2018-03-22T15:37:10.574Z,7.47
2018-03-22T15:39:36.639Z,7.50
2018-03-22T15:42:02.712Z,6.67
2018-03-22T15:44:28.738Z,6.90
2018-03-22T15:46:54.820Z,6.63
2018-03-22T15:49:20.895Z,6.67
2018-03-22T15:51:46.978Z,5.47
2018-03-22T15:54:12.984Z,6.10
2018-03-22T15:56:39.011Z,5.50
2018-03-22T15:59:05.086Z,5.40
2018-03-22T16:01:31.316Z,6.03
2018-03-22T16:03:57.879Z,5.00
2018-03-22T16:06:23.964Z,5.30
2018-03-22T16:08:49.939Z,6.00
2018-03-22T16:11:16.083Z,5.43
2018-03-22T16:13:42.884Z,5.83
2018-03-22T16:16:08.931Z,5.53
2018-03-22T16:18:34.968Z,5.57
2018-03-22T16:21:01.742Z,5.33
2018-03-22T16:23:28.441Z,6.33
2018-03-22T16:25:54.549Z,6.23
2018-03-22T16:28:20.619Z,5.90
2018-03-22T16:30:46.754Z,5.33
2018-03-22T16:33:12.843Z,6.43
2018-03-22T16:35:38.867Z,8.50
2018-03-22T16:38:05.355Z,14.53
2018-03-22T16:40:31.682Z,15.00
2018-03-22T16:42:57.774Z,18.03
2018-03-22T16:45:23.809Z,15.50
2018-03-22T16:47:49.906Z,17.03
2018-03-22T16:50:16.693Z,15.13
2018-03-22T16:52:42.716Z,18.37
2018-03-22T16:55:08.798Z,21.03
2018-03-22T16:57:36.003Z,15.27
2018-03-22T17:00:02.077Z,16.80
2018-03-22T17:02:28.056Z,17.70
2018-03-22T17:04:54.095Z,16.63
2018-03-22T17:07:20.498Z,17.83
2018-03-22T17:09:46.575Z,16.93
2018-03-22T17:12:13.476Z,17.13
2018-03-22T17:14:39.523Z,15.70
2018-03-22T17:17:06.591Z,16.10
2018-03-22T17:19:33.286Z,15.10
2018-03-22T17:22:00.120Z,14.40
2018-03-22T17:24:26.143Z,14.83
2018-03-22T17:26:52.264Z,14.77
2018-03-22T17:29:18.307Z,14.47
2018-03-22T17:31:45.677Z,14.07
2018-03-22T17:34:12.407Z,12.87
2018-03-22T17:36:38.508Z,12.20
2018-03-22T17:39:05.999Z,11.90
2018-03-22T17:41:32.966Z,11.90
2018-03-22T17:43:59.243Z,11.30
2018-03-22T17:46:25.495Z,11.27
2018-03-22T17:48:52.203Z,11.47
2018-03-22T17:51:19.419Z,14.10
2018-03-22T17:53:46.295Z,13.40
2018-03-22T17:56:12.567Z,11.70
2018-03-22T17:58:38.611Z,11.77
2018-03-22T18:01:05.308Z,13.37
2018-03-22T18:03:31.457Z,15.30
2018-03-22T18:05:57.685Z,15.97
2018-03-22T18:08:23.916Z,15.50
2018-03-22T18:10:50.050Z,17.77
2018-03-22T18:13:16.190Z,16.40
2018-03-22T18:15:42.380Z,14.90
2018-03-22T18:18:09.239Z,16.13
2018-03-22T18:20:35.663Z,15.77
2018-03-22T18:23:01.851Z,17.13
2018-03-22T18:25:28.603Z,16.57
2018-03-22T18:27:55.972Z,17.47
2018-03-22T18:30:22.520Z,16.90
2018-03-22T18:32:48.776Z,16.03
2018-03-22T18:35:15.600Z,15.77
2018-03-22T18:37:41.678Z,16.17
2018-03-22T18:40:08.011Z,18.80
2018-03-22T18:42:34.134Z,18.70
2018-03-22T18:45:01.118Z,19.90
2018-03-22T18:47:27.595Z,19.80
2018-03-22T18:49:53.616Z,17.67
2018-03-22T18:52:19.638Z,20.30
2018-03-22T18:54:45.844Z,20.07
2018-03-22T18:57:12.784Z,20.00
2018-03-22T18:59:38.822Z,18.53
2018-03-22T19:02:04.978Z,20.67
2018-03-22T19:04:32.020Z,18.07
2018-03-22T19:06:58.165Z,20.73
2018-03-22T19:09:24.408Z,22.37
2018-03-22T19:11:50.487Z,20.13
2018-03-22T19:14:16.499Z,22.20
2018-03-22T19:16:42.538Z,23.60
2018-03-22T19:19:08.559Z,20.67
2018-03-22T19:21:34.667Z,20.93
2018-03-22T19:24:00.676Z,24.03
2018-03-22T19:26:26.719Z,24.03
2018-03-22T19:28:53.087Z,24.33
2018-03-22T19:31:19.125Z,23.63
2018-03-22T19:33:45.219Z,21.63
2018-03-22T19:36:12.008Z,24.70
2018-03-22T19:38:38.387Z,23.90
2018-03-22T19:41:04.467Z,21.23
2018-03-22T19:43:30.483Z,25.20
2018-03-22T19:45:56.531Z,22.37
2018-03-22T19:48:22.616Z,23.83
2018-03-22T19:50:48.663Z,24.83
2018-03-22T19:53:15.095Z,25.83
2018-03-22T19:55:41.095Z,24.43
2018-03-22T19:58:07.183Z,25.97
2018-03-22T20:00:33.359Z,25.03
2018-03-22T20:02:59.389Z,24.57
2018-03-22T20:05:25.441Z,28.20
2018-03-22T20:07:51.426Z,26.90
2018-03-22T20:10:17.874Z,29.03
2018-03-22T20:12:43.926Z,28.33
2018-03-22T20:15:10.000Z,30.67
2018-03-22T20:17:36.792Z,30.73
2018-03-22T20:20:03.727Z,31.20
2018-03-22T20:22:30.167Z,33.27
2018-03-22T20:24:56.292Z,35.83
2018-03-22T20:27:22.568Z,33.30
2018-03-22T20:29:48.643Z,35.10
2018-03-22T20:32:14.660Z,31.70
2018-03-22T20:34:40.702Z,36.67
2018-03-22T20:37:06.726Z,35.47
2018-03-22T20:39:32.867Z,37.00
2018-03-22T20:41:59.683Z,32.40
2018-03-22T20:44:25.735Z,34.70
2018-03-22T20:46:51.991Z,35.13
2018-03-22T20:49:18.770Z,36.73
2018-03-22T20:51:44.970Z,34.10
2018-03-22T20:54:10.979Z,33.73
2018-03-22T20:56:37.076Z,33.07
2018-03-22T20:59:03.538Z,30.20
2018-03-22T21:01:30.563Z,35.50
2018-03-22T21:03:57.745Z,36.87
2018-03-22T21:06:24.813Z,34.00
2018-03-22T21:08:51.651Z,35.97
2018-03-22T21:11:17.666Z,38.40
2018-03-22T21:13:43.704Z,34.20
2018-03-22T21:16:10.142Z,31.67
2018-03-22T21:18:36.185Z,34.40
2018-03-22T21:21:02.230Z,28.63
2018-03-22T21:23:28.259Z,35.33
2018-03-22T21:25:54.677Z,31.13
2018-03-22T21:28:20.695Z,37.27
2018-03-22T21:30:46.717Z,40.37
2018-03-22T21:33:12.891Z,37.30
2018-03-22T21:35:38.926Z,37.20
2018-03-22T21:38:04.970Z,40.43
2018-03-22T21:40:31.063Z,38.07
2018-03-22T21:42:57.108Z,32.10
2018-03-22T21:45:23.184Z,34.53
2018-03-22T21:47:49.239Z,38.53
2018-03-22T21:50:15.246Z,36.07
2018-03-22T21:52:45.098Z,41.37
2018-03-22T21:55:11.143Z,42.83
2018-03-22T21:57:37.223Z,33.33
2018-03-22T22:00:03.277Z,39.37
2018-03-22T22:02:29.302Z,39.63
2018-03-22T22:04:55.326Z,38.57
2018-03-22T22:07:21.367Z,41.70
2018-03-22T22:09:47.415Z,35.13
2018-03-22T22:12:13.454Z,37.03
2018-03-22T22:14:39.480Z,42.70
2018-03-22T22:17:06.257Z,41.30
2018-03-22T22:19:32.311Z,41.57
2018-03-22T22:21:58.383Z,42.43
2018-03-22T22:24:25.523Z,48.43
2018-03-22T22:26:51.534Z,44.97
2018-03-22T22:29:17.565Z,38.33
2018-03-22T22:31:43.619Z,40.00
2018-03-22T22:34:09.659Z,42.23
2018-03-22T22:36:35.678Z,40.90
2018-03-22T22:39:02.070Z,39.73
2018-03-22T22:41:28.490Z,42.33
2018-03-22T22:43:54.653Z,40.60
2018-03-22T22:46:20.800Z,41.07
2018-03-22T22:48:46.933Z,39.17
2018-03-22T22:51:13.116Z,39.03
2018-03-22T22:53:39.215Z,37.37
2018-03-22T22:56:05.271Z,41.30
2018-03-22T22:58:31.338Z,39.13
2018-03-22T23:00:57.634Z,31.00
2018-03-22T23:03:23.684Z,39.20
2018-03-22T23:05:49.711Z,35.97
2018-03-22T23:08:16.236Z,29.60
2018-03-22T23:10:42.312Z,35.37
2018-03-22T23:13:08.334Z,38.37
2018-03-22T23:15:34.363Z,40.20
2018-03-22T23:18:00.373Z,36.93
2018-03-22T23:20:26.452Z,33.77
2018-03-22T23:22:52.550Z,34.30
2018-03-22T23:25:18.553Z,38.67
2018-03-22T23:27:44.782Z,35.77
2018-03-22T23:30:11.132Z,40.60
2018-03-22T23:32:39.010Z,34.47
2018-03-22T23:35:05.122Z,40.80
2018-03-22T23:37:31.171Z,37.83
2018-03-22T23:39:57.234Z,40.40
2018-03-22T23:42:23.279Z,47.30
2018-03-22T23:44:49.359Z,39.33
2018-03-22T23:47:15.396Z,44.43
2018-03-22T23:49:41.452Z,40.00
2018-03-22T23:52:07.466Z,38.13
2018-03-22T23:54:33.839Z,42.27
2018-03-22T23:56:59.878Z,45.27
2018-03-22T23:59:25.930Z,40.67
